sensor_id;sensor_type;location;lat;lon;timestamp;temperature;humidity
9450;DHT22;4763;48.370;10.874;2022-07-29T00:01:00;19.40;99.90
9450;DHT22;4763;48.370;10.874;2022-07-29T00:03:29;19.40;99.90
9450;DHT22;4763;48.370;10.874;2022-07-29T00:05:56;19.30;99.90
9450;DHT22;4763;48.370;10.874;2022-07-29T00:08:23;19.20;99.90
9450;DHT22;4763;48.370;10.874;2022-07-29T00:10:49;19.30;99.90
9450;DHT22;4763;48.370;10.874;2022-07-29T00:13:16;19.30;99.90
9450;DHT22;4763;48.370;10.874;2022-07-29T00:15:43;19.30;99.90
9450;DHT22;4763;48.370;10.874;2022-07-29T00:18:10;19.30;99.90
9450;DHT22;4763;48.370;10.874;2022-07-29T00:20:38;19.20;99.90
9450;DHT22;4763;48.370;10.874;2022-07-29T00:23:05;19.20;99.90
9450;DHT22;4763;48.370;10.874;2022-07-29T00:25:32;19.10;99.90
9450;DHT22;4763;48.370;10.874;2022-07-29T00:28:00;19.00;99.90
9450;DHT22;4763;48.370;10.874;2022-07-29T00:30:27;19.00;99.90
9450;DHT22;4763;48.370;10.874;2022-07-29T00:32:54;19.10;99.90
9450;DHT22;4763;48.370;10.874;2022-07-29T00:35:21;19.10;99.90
9450;DHT22;4763;48.370;10.874;2022-07-29T00:38:07;19.10;99.90
9450;DHT22;4763;48.370;10.874;2022-07-29T00:40:34;19.20;99.90
9450;DHT22;4763;48.370;10.874;2022-07-29T00:43:01;19.20;99.90
9450;DHT22;4763;48.370;10.874;2022-07-29T00:45:28;19.10;99.90
9450;DHT22;4763;48.370;10.874;2022-07-29T00:47:55;19.10;99.90
9450;DHT22;4763;48.370;10.874;2022-07-29T00:50:23;19.20;99.90
9450;DHT22;4763;48.370;10.874;2022-07-29T00:52:50;19.00;99.90
9450;DHT22;4763;48.370;10.874;2022-07-29T00:55:21;18.90;99.90
9450;DHT22;4763;48.370;10.874;2022-07-29T00:57:49;18.80;99.90
9450;DHT22;4763;48.370;10.874;2022-07-29T01:00:18;18.70;99.90
9450;DHT22;4763;48.370;10.874;2022-07-29T01:02:46;18.70;99.90
9450;DHT22;4763;48.370;10.874;2022-07-29T01:05:15;18.70;99.90
9450;DHT22;4763;48.370;10.874;2022-07-29T01:07:44;18.50;99.90
9450;DHT22;4763;48.370;10.874;2022-07-29T01:10:13;18.50;99.90
9450;DHT22;4763;48.370;10.874;2022-07-29T01:12:44;18.60;99.90
9450;DHT22;4763;48.370;10.874;2022-07-29T01:15:13;18.50;99.90
9450;DHT22;4763;48.370;10.874;2022-07-29T01:17:46;18.50;99.90
9450;DHT22;4763;48.370;10.874;2022-07-29T01:20:20;18.50;99.90
9450;DHT22;4763;48.370;10.874;2022-07-29T01:23:07;18.50;99.90
9450;DHT22;4763;48.370;10.874;2022-07-29T01:25:54;18.50;99.90
9450;DHT22;4763;48.370;10.874;2022-07-29T01:28:52;18.50;99.90
9450;DHT22;4763;48.370;10.874;2022-07-29T01:31:28;18.40;99.90
9450;DHT22;4763;48.370;10.874;2022-07-29T01:34:01;18.40;99.90
9450;DHT22;4763;48.370;10.874;2022-07-29T01:36:32;18.40;99.90
9450;DHT22;4763;48.370;10.874;2022-07-29T01:39:05;18.40;99.90
9450;DHT22;4763;48.370;10.874;2022-07-29T01:41:34;18.40;99.90
9450;DHT22;4763;48.370;10.874;2022-07-29T01:44:11;18.50;99.90
9450;DHT22;4763;48.370;10.874;2022-07-29T01:46:46;18.40;99.90
9450;DHT22;4763;48.370;10.874;2022-07-29T01:49:18;18.40;99.90
9450;DHT22;4763;48.370;10.874;2022-07-29T01:51:50;18.30;99.90
9450;DHT22;4763;48.370;10.874;2022-07-29T01:54:21;18.30;99.90
9450;DHT22;4763;48.370;10.874;2022-07-29T01:56:53;18.20;99.90
9450;DHT22;4763;48.370;10.874;2022-07-29T01:59:23;18.10;99.90
9450;DHT22;4763;48.370;10.874;2022-07-29T02:01:54;18.10;99.90
9450;DHT22;4763;48.370;10.874;2022-07-29T02:04:22;18.10;99.90
9450;DHT22;4763;48.370;10.874;2022-07-29T02:06:53;18.00;99.90
9450;DHT22;4763;48.370;10.874;2022-07-29T02:09:22;18.00;99.90
9450;DHT22;4763;48.370;10.874;2022-07-29T02:11:53;18.00;99.90
9450;DHT22;4763;48.370;10.874;2022-07-29T02:14:23;18.00;99.90
9450;DHT22;4763;48.370;10.874;2022-07-29T02:16:53;18.00;99.90
9450;DHT22;4763;48.370;10.874;2022-07-29T02:19:22;17.90;99.90
9450;DHT22;4763;48.370;10.874;2022-07-29T02:21:51;17.90;99.90
9450;DHT22;4763;48.370;10.874;2022-07-29T02:24:21;17.90;99.90
9450;DHT22;4763;48.370;10.874;2022-07-29T02:26:49;18.00;99.90
9450;DHT22;4763;48.370;10.874;2022-07-29T02:29:21;18.00;99.90
9450;DHT22;4763;48.370;10.874;2022-07-29T02:31:55;18.00;99.90
9450;DHT22;4763;48.370;10.874;2022-07-29T02:34:41;18.00;99.90
9450;DHT22;4763;48.370;10.874;2022-07-29T02:37:10;18.00;99.90
9450;DHT22;4763;48.370;10.874;2022-07-29T02:39:57;18.10;99.90
9450;DHT22;4763;48.370;10.874;2022-07-29T02:42:26;18.00;99.90
9450;DHT22;4763;48.370;10.874;2022-07-29T02:44:54;18.00;99.90
9450;DHT22;4763;48.370;10.874;2022-07-29T02:47:27;17.90;99.90
9450;DHT22;4763;48.370;10.874;2022-07-29T02:49:59;17.90;99.90
9450;DHT22;4763;48.370;10.874;2022-07-29T02:52:34;17.80;99.90
9450;DHT22;4763;48.370;10.874;2022-07-29T02:55:10;17.80;99.90
9450;DHT22;4763;48.370;10.874;2022-07-29T02:57:46;17.90;99.90
9450;DHT22;4763;48.370;10.874;2022-07-29T03:00:15;17.80;99.90
9450;DHT22;4763;48.370;10.874;2022-07-29T03:02:45;17.90;99.90
9450;DHT22;4763;48.370;10.874;2022-07-29T03:05:16;18.00;99.90
9450;DHT22;4763;48.370;10.874;2022-07-29T03:07:46;17.90;99.90
9450;DHT22;4763;48.370;10.874;2022-07-29T03:10:14;17.90;99.90
9450;DHT22;4763;48.370;10.874;2022-07-29T03:12:41;17.90;99.90
9450;DHT22;4763;48.370;10.874;2022-07-29T03:15:09;17.80;99.90
9450;DHT22;4763;48.370;10.874;2022-07-29T03:17:37;17.80;99.90
9450;DHT22;4763;48.370;10.874;2022-07-29T03:20:09;17.80;99.90
9450;DHT22;4763;48.370;10.874;2022-07-29T03:22:39;17.70;99.90
9450;DHT22;4763;48.370;10.874;2022-07-29T03:25:09;17.70;99.90
9450;DHT22;4763;48.370;10.874;2022-07-29T03:27:36;17.70;99.90
9450;DHT22;4763;48.370;10.874;2022-07-29T03:30:04;17.50;99.90
9450;DHT22;4763;48.370;10.874;2022-07-29T03:32:30;17.60;99.90
9450;DHT22;4763;48.370;10.874;2022-07-29T03:34:57;17.50;99.90
9450;DHT22;4763;48.370;10.874;2022-07-29T03:37:26;17.50;99.90
9450;DHT22;4763;48.370;10.874;2022-07-29T03:39:55;17.50;99.90
9450;DHT22;4763;48.370;10.874;2022-07-29T03:42:25;17.50;99.90
9450;DHT22;4763;48.370;10.874;2022-07-29T03:44:54;17.50;99.90
9450;DHT22;4763;48.370;10.874;2022-07-29T03:47:24;17.40;99.90
9450;DHT22;4763;48.370;10.874;2022-07-29T03:49:55;17.40;99.90
9450;DHT22;4763;48.370;10.874;2022-07-29T03:52:23;17.40;99.90
9450;DHT22;4763;48.370;10.874;2022-07-29T03:54:51;17.40;99.90
9450;DHT22;4763;48.370;10.874;2022-07-29T03:57:19;17.40;99.90
9450;DHT22;4763;48.370;10.874;2022-07-29T03:59:47;17.40;99.90
9450;DHT22;4763;48.370;10.874;2022-07-29T04:02:14;17.40;99.90
9450;DHT22;4763;48.370;10.874;2022-07-29T04:04:41;17.50;99.90
9450;DHT22;4763;48.370;10.874;2022-07-29T04:07:11;17.50;99.90
9450;DHT22;4763;48.370;10.874;2022-07-29T04:09:38;17.50;99.90
9450;DHT22;4763;48.370;10.874;2022-07-29T04:12:07;17.50;99.90
9450;DHT22;4763;48.370;10.874;2022-07-29T04:14:35;17.60;99.90
9450;DHT22;4763;48.370;10.874;2022-07-29T04:17:04;17.60;99.90
9450;DHT22;4763;48.370;10.874;2022-07-29T04:19:31;17.60;99.90
9450;DHT22;4763;48.370;10.874;2022-07-29T04:21:59;17.60;99.90
9450;DHT22;4763;48.370;10.874;2022-07-29T04:24:26;17.60;99.90
9450;DHT22;4763;48.370;10.874;2022-07-29T04:26:53;17.60;99.90
9450;DHT22;4763;48.370;10.874;2022-07-29T04:29:22;17.60;99.90
9450;DHT22;4763;48.370;10.874;2022-07-29T04:31:49;17.60;99.90
9450;DHT22;4763;48.370;10.874;2022-07-29T04:34:16;17.60;99.90
9450;DHT22;4763;48.370;10.874;2022-07-29T04:36:43;17.50;99.90
9450;DHT22;4763;48.370;10.874;2022-07-29T04:39:13;17.50;99.90
9450;DHT22;4763;48.370;10.874;2022-07-29T04:41:43;17.50;99.90
9450;DHT22;4763;48.370;10.874;2022-07-29T04:44:10;17.50;99.90
9450;DHT22;4763;48.370;10.874;2022-07-29T04:46:38;17.50;99.90
9450;DHT22;4763;48.370;10.874;2022-07-29T04:49:05;17.50;99.90
9450;DHT22;4763;48.370;10.874;2022-07-29T04:51:32;17.40;99.90
9450;DHT22;4763;48.370;10.874;2022-07-29T04:53:59;17.50;99.90
9450;DHT22;4763;48.370;10.874;2022-07-29T04:56:26;17.50;99.90
9450;DHT22;4763;48.370;10.874;2022-07-29T04:58:54;17.40;99.90
9450;DHT22;4763;48.370;10.874;2022-07-29T05:01:21;17.50;99.90
9450;DHT22;4763;48.370;10.874;2022-07-29T05:03:49;17.50;99.90
9450;DHT22;4763;48.370;10.874;2022-07-29T05:06:16;17.60;99.90
9450;DHT22;4763;48.370;10.874;2022-07-29T05:08:43;17.60;99.90
9450;DHT22;4763;48.370;10.874;2022-07-29T05:11:09;17.60;99.90
9450;DHT22;4763;48.370;10.874;2022-07-29T05:13:37;17.60;99.90
9450;DHT22;4763;48.370;10.874;2022-07-29T05:16:04;17.70;99.90
9450;DHT22;4763;48.370;10.874;2022-07-29T05:18:31;17.70;99.90
9450;DHT22;4763;48.370;10.874;2022-07-29T05:21:00;17.80;99.90
9450;DHT22;4763;48.370;10.874;2022-07-29T05:23:27;17.80;99.90
9450;DHT22;4763;48.370;10.874;2022-07-29T05:25:54;17.80;99.90
9450;DHT22;4763;48.370;10.874;2022-07-29T05:28:20;17.90;99.90
9450;DHT22;4763;48.370;10.874;2022-07-29T05:30:47;17.90;99.90
9450;DHT22;4763;48.370;10.874;2022-07-29T05:33:14;17.90;99.90
9450;DHT22;4763;48.370;10.874;2022-07-29T05:35:41;17.90;99.90
9450;DHT22;4763;48.370;10.874;2022-07-29T05:38:09;18.00;99.90
9450;DHT22;4763;48.370;10.874;2022-07-29T05:40:36;18.10;99.90
9450;DHT22;4763;48.370;10.874;2022-07-29T05:43:03;18.00;99.90
9450;DHT22;4763;48.370;10.874;2022-07-29T05:45:30;18.00;99.90
9450;DHT22;4763;48.370;10.874;2022-07-29T05:47:57;18.10;99.90
9450;DHT22;4763;48.370;10.874;2022-07-29T05:50:24;18.10;99.90
9450;DHT22;4763;48.370;10.874;2022-07-29T05:52:51;18.10;99.90
9450;DHT22;4763;48.370;10.874;2022-07-29T05:55:19;18.10;99.90
9450;DHT22;4763;48.370;10.874;2022-07-29T05:57:46;18.10;99.90
9450;DHT22;4763;48.370;10.874;2022-07-29T06:00:13;18.20;99.90
9450;DHT22;4763;48.370;10.874;2022-07-29T06:02:40;18.20;99.90
9450;DHT22;4763;48.370;10.874;2022-07-29T06:05:07;18.30;99.90
9450;DHT22;4763;48.370;10.874;2022-07-29T06:07:34;18.30;99.90
9450;DHT22;4763;48.370;10.874;2022-07-29T06:10:01;18.30;99.90
9450;DHT22;4763;48.370;10.874;2022-07-29T06:12:30;18.50;99.90
9450;DHT22;4763;48.370;10.874;2022-07-29T06:14:57;18.60;99.90
9450;DHT22;4763;48.370;10.874;2022-07-29T06:17:23;18.60;99.90
9450;DHT22;4763;48.370;10.874;2022-07-29T06:19:50;18.60;99.90
9450;DHT22;4763;48.370;10.874;2022-07-29T06:22:17;18.70;99.90
9450;DHT22;4763;48.370;10.874;2022-07-29T06:24:44;18.80;99.90
9450;DHT22;4763;48.370;10.874;2022-07-29T06:27:11;19.00;99.90
9450;DHT22;4763;48.370;10.874;2022-07-29T06:29:39;19.20;99.90
9450;DHT22;4763;48.370;10.874;2022-07-29T06:32:06;19.40;99.90
9450;DHT22;4763;48.370;10.874;2022-07-29T06:34:34;19.60;99.90
9450;DHT22;4763;48.370;10.874;2022-07-29T06:37:06;19.70;99.90
9450;DHT22;4763;48.370;10.874;2022-07-29T06:39:34;19.80;99.90
9450;DHT22;4763;48.370;10.874;2022-07-29T06:42:01;19.90;99.90
9450;DHT22;4763;48.370;10.874;2022-07-29T06:44:28;20.10;99.90
9450;DHT22;4763;48.370;10.874;2022-07-29T06:46:56;20.10;99.90
9450;DHT22;4763;48.370;10.874;2022-07-29T06:49:23;20.30;99.90
9450;DHT22;4763;48.370;10.874;2022-07-29T06:51:51;20.40;99.90
9450;DHT22;4763;48.370;10.874;2022-07-29T06:54:18;20.50;99.90
9450;DHT22;4763;48.370;10.874;2022-07-29T06:56:46;20.60;99.90
9450;DHT22;4763;48.370;10.874;2022-07-29T06:59:13;20.60;99.90
9450;DHT22;4763;48.370;10.874;2022-07-29T07:01:41;20.70;99.90
9450;DHT22;4763;48.370;10.874;2022-07-29T07:04:11;20.90;99.90
9450;DHT22;4763;48.370;10.874;2022-07-29T07:06:38;21.10;99.90
9450;DHT22;4763;48.370;10.874;2022-07-29T07:09:05;21.20;99.90
9450;DHT22;4763;48.370;10.874;2022-07-29T07:11:32;21.40;99.90
9450;DHT22;4763;48.370;10.874;2022-07-29T07:14:00;21.60;99.90
9450;DHT22;4763;48.370;10.874;2022-07-29T07:16:26;21.70;99.90
9450;DHT22;4763;48.370;10.874;2022-07-29T07:18:53;21.60;99.90
9450;DHT22;4763;48.370;10.874;2022-07-29T07:21:21;21.70;99.90
9450;DHT22;4763;48.370;10.874;2022-07-29T07:23:48;21.80;99.90
9450;DHT22;4763;48.370;10.874;2022-07-29T07:26:15;21.90;99.90
9450;DHT22;4763;48.370;10.874;2022-07-29T07:28:42;22.00;99.90
9450;DHT22;4763;48.370;10.874;2022-07-29T07:31:09;22.00;99.90
9450;DHT22;4763;48.370;10.874;2022-07-29T07:33:36;22.00;99.90
9450;DHT22;4763;48.370;10.874;2022-07-29T07:36:03;22.00;99.90
9450;DHT22;4763;48.370;10.874;2022-07-29T07:38:32;22.20;99.90
9450;DHT22;4763;48.370;10.874;2022-07-29T07:40:59;22.20;99.90
9450;DHT22;4763;48.370;10.874;2022-07-29T07:43:26;22.30;99.90
9450;DHT22;4763;48.370;10.874;2022-07-29T07:45:53;22.40;99.90
9450;DHT22;4763;48.370;10.874;2022-07-29T07:48:20;22.40;99.90
9450;DHT22;4763;48.370;10.874;2022-07-29T07:50:47;22.50;99.90
9450;DHT22;4763;48.370;10.874;2022-07-29T07:53:14;22.60;99.90
9450;DHT22;4763;48.370;10.874;2022-07-29T07:55:43;22.60;99.90
9450;DHT22;4763;48.370;10.874;2022-07-29T07:58:10;22.60;99.90
9450;DHT22;4763;48.370;10.874;2022-07-29T08:00:37;22.80;99.90
9450;DHT22;4763;48.370;10.874;2022-07-29T08:03:04;22.90;99.90
9450;DHT22;4763;48.370;10.874;2022-07-29T08:05:31;23.00;99.90
9450;DHT22;4763;48.370;10.874;2022-07-29T08:07:58;22.90;99.90
9450;DHT22;4763;48.370;10.874;2022-07-29T08:10:25;22.90;99.90
9450;DHT22;4763;48.370;10.874;2022-07-29T08:13:10;22.90;99.90
9450;DHT22;4763;48.370;10.874;2022-07-29T08:15:39;22.80;99.90
9450;DHT22;4763;48.370;10.874;2022-07-29T08:18:07;22.80;99.90
9450;DHT22;4763;48.370;10.874;2022-07-29T08:20:34;22.70;99.90
9450;DHT22;4763;48.370;10.874;2022-07-29T08:23:01;22.70;99.90
9450;DHT22;4763;48.370;10.874;2022-07-29T08:25:29;22.80;99.90
9450;DHT22;4763;48.370;10.874;2022-07-29T08:27:56;22.80;99.90
9450;DHT22;4763;48.370;10.874;2022-07-29T08:30:25;22.80;99.90
9450;DHT22;4763;48.370;10.874;2022-07-29T08:32:51;22.60;99.90
9450;DHT22;4763;48.370;10.874;2022-07-29T08:35:18;22.60;99.90
9450;DHT22;4763;48.370;10.874;2022-07-29T08:37:46;22.50;99.90
9450;DHT22;4763;48.370;10.874;2022-07-29T08:40:13;22.40;99.90
9450;DHT22;4763;48.370;10.874;2022-07-29T08:42:41;22.40;99.90
9450;DHT22;4763;48.370;10.874;2022-07-29T08:45:09;22.40;99.90
9450;DHT22;4763;48.370;10.874;2022-07-29T08:47:38;22.40;99.90
9450;DHT22;4763;48.370;10.874;2022-07-29T08:50:06;22.50;99.90
9450;DHT22;4763;48.370;10.874;2022-07-29T08:52:38;22.50;99.90
9450;DHT22;4763;48.370;10.874;2022-07-29T08:55:06;22.60;99.90
9450;DHT22;4763;48.370;10.874;2022-07-29T08:57:33;22.80;99.90
9450;DHT22;4763;48.370;10.874;2022-07-29T09:00:02;23.00;99.90
9450;DHT22;4763;48.370;10.874;2022-07-29T09:02:35;23.10;99.90
9450;DHT22;4763;48.370;10.874;2022-07-29T09:05:07;23.10;99.90
9450;DHT22;4763;48.370;10.874;2022-07-29T09:07:34;23.10;99.90
9450;DHT22;4763;48.370;10.874;2022-07-29T09:10:03;23.10;99.90
9450;DHT22;4763;48.370;10.874;2022-07-29T09:12:31;23.20;99.90
9450;DHT22;4763;48.370;10.874;2022-07-29T09:14:58;23.30;99.90
9450;DHT22;4763;48.370;10.874;2022-07-29T09:17:40;23.30;99.90
9450;DHT22;4763;48.370;10.874;2022-07-29T09:20:10;23.30;99.90
9450;DHT22;4763;48.370;10.874;2022-07-29T09:22:38;23.20;99.90
9450;DHT22;4763;48.370;10.874;2022-07-29T09:25:05;23.30;99.90
9450;DHT22;4763;48.370;10.874;2022-07-29T09:27:33;23.30;99.90
9450;DHT22;4763;48.370;10.874;2022-07-29T09:30:02;23.40;99.90
9450;DHT22;4763;48.370;10.874;2022-07-29T09:32:29;23.60;99.90
9450;DHT22;4763;48.370;10.874;2022-07-29T09:35:18;23.90;99.90
9450;DHT22;4763;48.370;10.874;2022-07-29T09:37:46;23.90;99.90
9450;DHT22;4763;48.370;10.874;2022-07-29T09:40:15;24.00;99.90
9450;DHT22;4763;48.370;10.874;2022-07-29T09:42:42;23.90;99.90
9450;DHT22;4763;48.370;10.874;2022-07-29T09:45:09;24.10;99.90
9450;DHT22;4763;48.370;10.874;2022-07-29T09:47:44;24.30;99.90
9450;DHT22;4763;48.370;10.874;2022-07-29T09:50:12;24.50;99.90
9450;DHT22;4763;48.370;10.874;2022-07-29T09:52:49;24.50;99.90
9450;DHT22;4763;48.370;10.874;2022-07-29T09:55:16;24.60;99.90
9450;DHT22;4763;48.370;10.874;2022-07-29T09:57:44;24.70;99.90
9450;DHT22;4763;48.370;10.874;2022-07-29T10:00:13;24.90;99.90
9450;DHT22;4763;48.370;10.874;2022-07-29T10:02:42;25.20;99.90
9450;DHT22;4763;48.370;10.874;2022-07-29T10:05:21;25.40;99.90
9450;DHT22;4763;48.370;10.874;2022-07-29T10:07:51;25.60;99.90
9450;DHT22;4763;48.370;10.874;2022-07-29T10:10:20;25.90;99.90
9450;DHT22;4763;48.370;10.874;2022-07-29T10:12:53;26.00;99.90
9450;DHT22;4763;48.370;10.874;2022-07-29T10:15:22;25.70;99.90
9450;DHT22;4763;48.370;10.874;2022-07-29T10:17:50;25.60;99.90
9450;DHT22;4763;48.370;10.874;2022-07-29T10:20:18;25.60;99.90
9450;DHT22;4763;48.370;10.874;2022-07-29T10:22:45;25.50;99.90
9450;DHT22;4763;48.370;10.874;2022-07-29T10:25:15;25.70;99.90
9450;DHT22;4763;48.370;10.874;2022-07-29T10:27:42;25.90;99.90
9450;DHT22;4763;48.370;10.874;2022-07-29T10:30:10;26.10;99.90
9450;DHT22;4763;48.370;10.874;2022-07-29T10:33:04;26.30;99.90
9450;DHT22;4763;48.370;10.874;2022-07-29T10:36:02;26.30;99.90
9450;DHT22;4763;48.370;10.874;2022-07-29T10:38:51;26.60;99.90
9450;DHT22;4763;48.370;10.874;2022-07-29T10:44:17;26.70;99.90
9450;DHT22;4763;48.370;10.874;2022-07-29T10:46:45;26.40;99.90
9450;DHT22;4763;48.370;10.874;2022-07-29T10:49:14;26.40;99.90
9450;DHT22;4763;48.370;10.874;2022-07-29T10:52:02;26.60;99.90
9450;DHT22;4763;48.370;10.874;2022-07-29T10:54:46;26.90;99.90
9450;DHT22;4763;48.370;10.874;2022-07-29T10:57:19;26.90;99.90
9450;DHT22;4763;48.370;10.874;2022-07-29T10:59:47;27.00;99.90
9450;DHT22;4763;48.370;10.874;2022-07-29T11:02:45;27.30;99.90
9450;DHT22;4763;48.370;10.874;2022-07-29T11:05:14;27.20;99.90
9450;DHT22;4763;48.370;10.874;2022-07-29T11:10:43;27.70;99.90
9450;DHT22;4763;48.370;10.874;2022-07-29T11:13:11;27.60;99.90
9450;DHT22;4763;48.370;10.874;2022-07-29T11:15:52;27.60;99.90
9450;DHT22;4763;48.370;10.874;2022-07-29T11:18:19;27.60;99.90
9450;DHT22;4763;48.370;10.874;2022-07-29T11:20:47;28.00;99.90
9450;DHT22;4763;48.370;10.874;2022-07-29T11:23:23;28.20;99.90
9450;DHT22;4763;48.370;10.874;2022-07-29T11:26:13;28.30;99.90
9450;DHT22;4763;48.370;10.874;2022-07-29T11:29:00;28.60;99.90
9450;DHT22;4763;48.370;10.874;2022-07-29T11:31:36;28.80;99.90
9450;DHT22;4763;48.370;10.874;2022-07-29T11:34:20;28.70;99.90
9450;DHT22;4763;48.370;10.874;2022-07-29T11:40:17;28.30;99.90
9450;DHT22;4763;48.370;10.874;2022-07-29T11:42:46;28.30;99.90
9450;DHT22;4763;48.370;10.874;2022-07-29T11:45:25;28.40;99.90
9450;DHT22;4763;48.370;10.874;2022-07-29T11:47:58;28.40;99.90
9450;DHT22;4763;48.370;10.874;2022-07-29T11:50:36;28.50;99.90
9450;DHT22;4763;48.370;10.874;2022-07-29T11:53:10;28.20;99.90
9450;DHT22;4763;48.370;10.874;2022-07-29T11:55:38;28.00;99.90
9450;DHT22;4763;48.370;10.874;2022-07-29T11:58:05;28.10;99.90
9450;DHT22;4763;48.370;10.874;2022-07-29T12:00:35;28.10;99.90
9450;DHT22;4763;48.370;10.874;2022-07-29T12:03:04;28.60;99.90
9450;DHT22;4763;48.370;10.874;2022-07-29T12:05:34;28.70;99.90
9450;DHT22;4763;48.370;10.874;2022-07-29T12:08:13;28.90;99.90
9450;DHT22;4763;48.370;10.874;2022-07-29T12:10:41;28.70;99.90
9450;DHT22;4763;48.370;10.874;2022-07-29T12:13:09;28.30;99.90
9450;DHT22;4763;48.370;10.874;2022-07-29T12:15:37;28.00;99.90
9450;DHT22;4763;48.370;10.874;2022-07-29T12:18:13;27.70;99.90
9450;DHT22;4763;48.370;10.874;2022-07-29T12:20:41;27.60;99.90
9450;DHT22;4763;48.370;10.874;2022-07-29T12:23:10;27.50;99.90
9450;DHT22;4763;48.370;10.874;2022-07-29T12:25:39;27.50;99.90
9450;DHT22;4763;48.370;10.874;2022-07-29T12:28:08;27.70;99.90
9450;DHT22;4763;48.370;10.874;2022-07-29T12:30:44;27.80;99.90
9450;DHT22;4763;48.370;10.874;2022-07-29T12:33:17;27.80;99.90
9450;DHT22;4763;48.370;10.874;2022-07-29T12:35:46;27.70;99.90
9450;DHT22;4763;48.370;10.874;2022-07-29T12:38:14;27.40;99.90
9450;DHT22;4763;48.370;10.874;2022-07-29T12:40:42;27.30;99.90
9450;DHT22;4763;48.370;10.874;2022-07-29T12:43:11;27.20;99.90
9450;DHT22;4763;48.370;10.874;2022-07-29T12:45:39;27.00;99.90
9450;DHT22;4763;48.370;10.874;2022-07-29T12:48:08;26.90;99.90
9450;DHT22;4763;48.370;10.874;2022-07-29T12:50:36;26.80;99.90
9450;DHT22;4763;48.370;10.874;2022-07-29T12:53:11;26.50;99.90
9450;DHT22;4763;48.370;10.874;2022-07-29T12:55:40;26.40;99.90
9450;DHT22;4763;48.370;10.874;2022-07-29T12:58:07;26.40;99.90
9450;DHT22;4763;48.370;10.874;2022-07-29T13:00:34;26.20;99.90
9450;DHT22;4763;48.370;10.874;2022-07-29T13:03:01;26.10;99.90
9450;DHT22;4763;48.370;10.874;2022-07-29T13:08:31;25.90;99.90
9450;DHT22;4763;48.370;10.874;2022-07-29T13:10:58;25.90;99.90
9450;DHT22;4763;48.370;10.874;2022-07-29T13:13:25;25.80;99.90
9450;DHT22;4763;48.370;10.874;2022-07-29T13:16:06;25.60;99.90
9450;DHT22;4763;48.370;10.874;2022-07-29T13:18:36;25.60;99.90
9450;DHT22;4763;48.370;10.874;2022-07-29T13:21:10;25.50;99.90
9450;DHT22;4763;48.370;10.874;2022-07-29T13:23:39;25.40;99.90
9450;DHT22;4763;48.370;10.874;2022-07-29T13:26:07;25.40;99.90
9450;DHT22;4763;48.370;10.874;2022-07-29T13:28:34;25.40;99.90
9450;DHT22;4763;48.370;10.874;2022-07-29T13:31:05;25.30;99.90
9450;DHT22;4763;48.370;10.874;2022-07-29T13:33:32;25.30;99.90
9450;DHT22;4763;48.370;10.874;2022-07-29T13:35:59;25.40;99.90
9450;DHT22;4763;48.370;10.874;2022-07-29T13:38:26;25.40;99.90
9450;DHT22;4763;48.370;10.874;2022-07-29T13:40:55;25.50;99.90
9450;DHT22;4763;48.370;10.874;2022-07-29T13:43:22;25.50;99.90
9450;DHT22;4763;48.370;10.874;2022-07-29T13:45:49;25.50;99.90
9450;DHT22;4763;48.370;10.874;2022-07-29T13:48:16;25.60;99.90
9450;DHT22;4763;48.370;10.874;2022-07-29T13:50:43;25.60;99.90
9450;DHT22;4763;48.370;10.874;2022-07-29T13:53:11;25.70;99.90
9450;DHT22;4763;48.370;10.874;2022-07-29T13:55:40;25.80;99.90
9450;DHT22;4763;48.370;10.874;2022-07-29T13:58:09;25.90;99.90
9450;DHT22;4763;48.370;10.874;2022-07-29T14:00:35;25.90;99.90
9450;DHT22;4763;48.370;10.874;2022-07-29T14:03:03;25.90;99.90
9450;DHT22;4763;48.370;10.874;2022-07-29T14:05:30;25.90;99.90
9450;DHT22;4763;48.370;10.874;2022-07-29T14:07:57;25.90;99.90
9450;DHT22;4763;48.370;10.874;2022-07-29T14:10:30;25.90;99.90
9450;DHT22;4763;48.370;10.874;2022-07-29T14:13:00;26.00;99.90
9450;DHT22;4763;48.370;10.874;2022-07-29T14:15:28;26.10;99.90
9450;DHT22;4763;48.370;10.874;2022-07-29T14:17:55;26.30;99.90
9450;DHT22;4763;48.370;10.874;2022-07-29T14:20:22;26.30;99.90
9450;DHT22;4763;48.370;10.874;2022-07-29T14:22:49;26.60;99.90
9450;DHT22;4763;48.370;10.874;2022-07-29T14:25:16;26.90;99.90
9450;DHT22;4763;48.370;10.874;2022-07-29T14:27:43;27.40;99.90
9450;DHT22;4763;48.370;10.874;2022-07-29T14:30:10;27.70;99.90
9450;DHT22;4763;48.370;10.874;2022-07-29T14:32:39;27.80;99.90
9450;DHT22;4763;48.370;10.874;2022-07-29T14:35:07;27.90;99.90
9450;DHT22;4763;48.370;10.874;2022-07-29T14:37:37;28.00;99.90
9450;DHT22;4763;48.370;10.874;2022-07-29T14:40:05;27.80;99.90
9450;DHT22;4763;48.370;10.874;2022-07-29T14:42:34;27.50;99.90
9450;DHT22;4763;48.370;10.874;2022-07-29T14:45:10;27.40;99.90
9450;DHT22;4763;48.370;10.874;2022-07-29T14:47:38;27.20;99.90
9450;DHT22;4763;48.370;10.874;2022-07-29T14:50:07;27.10;99.90
9450;DHT22;4763;48.370;10.874;2022-07-29T14:52:34;27.00;99.90
9450;DHT22;4763;48.370;10.874;2022-07-29T14:55:01;27.00;99.90
9450;DHT22;4763;48.370;10.874;2022-07-29T14:57:28;26.90;99.90
9450;DHT22;4763;48.370;10.874;2022-07-29T14:59:55;26.80;99.90
9450;DHT22;4763;48.370;10.874;2022-07-29T15:02:21;26.70;99.90
9450;DHT22;4763;48.370;10.874;2022-07-29T15:04:50;26.80;99.90
9450;DHT22;4763;48.370;10.874;2022-07-29T15:07:17;26.80;99.90
9450;DHT22;4763;48.370;10.874;2022-07-29T15:09:44;26.70;99.90
9450;DHT22;4763;48.370;10.874;2022-07-29T15:12:12;26.60;99.90
9450;DHT22;4763;48.370;10.874;2022-07-29T15:14:44;26.70;99.90
9450;DHT22;4763;48.370;10.874;2022-07-29T15:17:13;26.70;99.90
9450;DHT22;4763;48.370;10.874;2022-07-29T15:19:42;26.80;99.90
9450;DHT22;4763;48.370;10.874;2022-07-29T15:22:36;26.70;99.90
9450;DHT22;4763;48.370;10.874;2022-07-29T15:25:04;26.50;99.90
9450;DHT22;4763;48.370;10.874;2022-07-29T15:27:31;26.50;99.90
9450;DHT22;4763;48.370;10.874;2022-07-29T15:29:58;26.40;99.90
9450;DHT22;4763;48.370;10.874;2022-07-29T15:32:25;26.30;99.90
9450;DHT22;4763;48.370;10.874;2022-07-29T15:34:51;26.30;99.90
9450;DHT22;4763;48.370;10.874;2022-07-29T15:37:18;26.20;99.90
9450;DHT22;4763;48.370;10.874;2022-07-29T15:39:47;26.10;99.90
9450;DHT22;4763;48.370;10.874;2022-07-29T15:42:14;26.00;99.90
9450;DHT22;4763;48.370;10.874;2022-07-29T15:44:41;25.90;99.90
9450;DHT22;4763;48.370;10.874;2022-07-29T15:47:08;25.80;99.90
9450;DHT22;4763;48.370;10.874;2022-07-29T15:49:36;25.60;99.90
9450;DHT22;4763;48.370;10.874;2022-07-29T15:52:05;25.50;99.90
9450;DHT22;4763;48.370;10.874;2022-07-29T15:54:33;25.30;99.90
9450;DHT22;4763;48.370;10.874;2022-07-29T15:57:02;25.20;99.90
9450;DHT22;4763;48.370;10.874;2022-07-29T15:59:29;25.00;99.90
9450;DHT22;4763;48.370;10.874;2022-07-29T16:01:57;25.00;99.90
9450;DHT22;4763;48.370;10.874;2022-07-29T16:04:24;24.90;99.90
9450;DHT22;4763;48.370;10.874;2022-07-29T16:06:51;24.90;99.90
9450;DHT22;4763;48.370;10.874;2022-07-29T16:09:18;24.90;99.90
9450;DHT22;4763;48.370;10.874;2022-07-29T16:11:45;24.80;99.90